Time;durP1;ratioP1;P1;durP2;ratioP2;P2;SDS_P1;SDS_P2;PMS_P1;PMS_P2;Temp;Humidity;BMP_temperature;BMP_pressure;BME280_temperature;BME280_humidity;BME280_pressure;Samples;Min_cycle;Max_cycle;Signal;HPM_P1;HPM_P2
2024/01/28 00:00:57;;;;;;;16.85;10.13;;;;;;;7.69;65.52;101634.22;5069619;28;20028;-73
2024/01/28 00:03:22;;;;;;;18.48;10.90;;;;;;;7.60;65.43;101611.50;5059387;28;20036;-71
2024/01/28 00:05:49;;;;;;;15.73;10.65;;;;;;;7.76;65.18;101643.66;5067203;28;20111;-74
2024/01/28 00:08:15;;;;;;;17.08;11.07;;;;;;;7.78;64.98;101646.25;5066897;28;20020;-74
2024/01/28 00:10:41;;;;;;;22.58;10.82;;;;;;;7.78;65.13;101651.59;5067374;28;20024;-73
2024/01/28 00:13:06;;;;;;;16.67;11.50;;;;;;;7.75;64.98;101657.13;5067437;28;20024;-73
2024/01/28 00:15:32;;;;;;;16.92;11.35;;;;;;;7.79;64.91;101664.06;5067234;28;20489;-74
2024/01/28 00:17:58;;;;;;;15.30;9.80;;;;;;;7.70;65.07;101662.75;5067347;28;20089;-74
2024/01/28 00:20:23;;;;;;;12.93;9.70;;;;;;;7.74;64.80;101650.03;5067749;28;20027;-73
2024/01/28 00:22:49;;;;;;;22.17;11.52;;;;;;;7.65;65.06;101630.84;5067129;28;20025;-72
2024/01/28 00:25:15;;;;;;;15.18;10.50;;;;;;;7.62;65.26;101620.28;5064866;28;20035;-73
2024/01/28 00:27:40;;;;;;;15.38;11.13;;;;;;;7.52;64.91;101594.13;5068104;28;20044;-74
2024/01/28 00:30:08;;;;;;;19.38;10.73;;;;;;;7.86;65.39;101642.22;5081561;28;20040;-72
2024/01/28 00:32:34;;;;;;;16.23;11.63;;;;;;;7.89;65.01;101650.06;5067378;28;20125;-74
2024/01/28 00:35:00;;;;;;;14.93;10.27;;;;;;;7.85;64.76;101647.66;5067408;28;20620;-74
2024/01/28 00:37:25;;;;;;;18.10;10.85;;;;;;;7.75;64.91;101641.06;5067248;28;20115;-73
2024/01/28 00:39:50;;;;;;;16.90;11.55;;;;;;;7.83;64.71;101644.22;5067858;28;20024;-74
2024/01/28 00:42:16;;;;;;;20.73;11.77;;;;;;;7.75;64.81;101657.13;5055549;28;20032;-74
2024/01/28 00:44:42;;;;;;;15.30;11.02;;;;;;;7.70;64.13;101653.84;5068503;28;20074;-73
2024/01/28 00:47:07;;;;;;;19.63;12.32;;;;;;;7.49;65.05;101642.47;5071988;28;20468;-73
2024/01/28 00:49:33;;;;;;;15.07;12.15;;;;;;;7.58;64.89;101661.56;5068518;28;20028;-72
2024/01/28 00:52:02;;;;;;;16.13;11.15;;;;;;;7.50;64.66;101652.19;5067587;28;20177;-74
2024/01/28 00:54:27;;;;;;;20.67;13.52;;;;;;;7.51;64.90;101665.53;5066303;28;20485;-72
2024/01/28 00:56:53;;;;;;;18.83;12.50;;;;;;;7.46;65.23;101664.88;5066848;28;20060;-73
2024/01/28 00:59:19;;;;;;;19.50;13.07;;;;;;;7.38;65.07;101672.44;5068308;28;20032;-72
2024/01/28 01:01:45;;;;;;;22.45;12.82;;;;;;;7.25;65.70;101641.91;5070340;28;20100;-73
2024/01/28 01:04:10;;;;;;;21.67;13.38;;;;;;;7.23;65.47;101654.50;5070244;28;20482;-72
2024/01/28 01:06:39;;;;;;;26.30;15.95;;;;;;;7.23;65.56;101662.53;5070566;28;20029;-74
2024/01/28 01:09:07;;;;;;;19.55;14.38;;;;;;;7.17;65.86;101661.97;5070509;28;20033;-73
2024/01/28 01:11:33;;;;;;;20.60;15.18;;;;;;;7.11;66.01;101666.69;5069933;28;20385;-74
2024/01/28 01:13:59;;;;;;;23.67;16.02;;;;;;;6.98;66.84;101654.88;5069718;28;20404;-73
2024/01/28 01:16:24;;;;;;;24.13;15.48;;;;;;;6.96;67.10;101658.56;5054664;28;20036;-75
2024/01/28 01:18:50;;;;;;;25.40;15.50;;;;;;;6.88;67.18;101647.41;5070186;28;20029;-74
2024/01/28 01:21:15;;;;;;;21.23;14.40;;;;;;;6.87;67.66;101645.66;5065486;28;20115;-76
2024/01/28 01:23:41;;;;;;;23.90;15.10;;;;;;;6.75;67.46;101631.09;5060871;28;20025;-73
2024/01/28 01:26:06;;;;;;;25.73;14.50;;;;;;;6.75;67.42;101648.94;5070561;28;20040;-74
2024/01/28 01:28:32;;;;;;;22.58;15.35;;;;;;;6.72;68.19;101649.09;5070763;28;20029;-73
2024/01/28 01:30:58;;;;;;;27.30;16.05;;;;;;;6.69;67.99;101651.91;5056322;28;20389;-74
2024/01/28 01:33:24;;;;;;;23.08;15.10;;;;;;;6.67;67.98;101659.13;5069360;28;20102;-73
2024/01/28 01:35:49;;;;;;;23.15;15.32;;;;;;;6.66;68.49;101655.63;5072719;28;20110;-72
2024/01/28 01:38:15;;;;;;;29.55;15.25;;;;;;;6.52;67.98;101634.88;5034597;28;20048;-73
2024/01/28 01:40:41;;;;;;;22.65;14.85;;;;;;;6.48;68.27;101645.81;5069785;28;20017;-74
2024/01/28 01:43:09;;;;;;;24.10;14.52;;;;;;;6.47;68.09;101662.78;5068857;28;20039;-73
2024/01/28 01:45:37;;;;;;;19.25;12.60;;;;;;;6.40;68.42;101662.22;5053146;28;20060;-77
2024/01/28 01:48:10;;;;;;;15.68;11.65;;;;;;;6.37;68.29;101657.00;5069612;28;20024;-73
2024/01/28 01:50:36;;;;;;;18.98;12.50;;;;;;;6.30;68.17;101650.22;5069756;28;20039;-74
2024/01/28 01:53:04;;;;;;;15.70;11.55;;;;;;;6.16;68.37;101641.13;5054220;28;20028;-76
2024/01/28 01:55:30;;;;;;;21.35;12.65;;;;;;;6.18;68.71;101648.13;5068723;28;20055;-75
2024/01/28 01:57:56;;;;;;;15.70;12.18;;;;;;;6.12;69.17;101655.53;5069505;28;20043;-73
2024/01/28 02:00:22;;;;;;;19.75;10.43;;;;;;;6.11;69.07;101660.06;5062684;28;23769;-76
2024/01/28 02:02:47;;;;;;;17.45;10.52;;;;;;;6.08;69.44;101646.84;5059633;28;20392;-75
2024/01/28 02:05:13;;;;;;;15.63;11.45;;;;;;;6.04;69.32;101655.91;5069246;28;20149;-74
2024/01/28 02:07:39;;;;;;;17.95;11.73;;;;;;;6.05;69.90;101638.97;5058734;28;20028;-80
2024/01/28 02:10:05;;;;;;;20.45;13.15;;;;;;;6.00;69.79;101641.84;5062832;28;20028;-75
2024/01/28 02:12:31;;;;;;;14.48;10.18;;;;;;;5.90;69.45;101637.00;5069073;28;21107;-74
2024/01/28 02:15:09;;;;;;;14.43;9.85;;;;;;;5.92;69.83;101656.47;5069716;28;20029;-73
2024/01/28 02:17:35;;;;;;;15.73;10.68;;;;;;;5.95;70.05;101654.53;5069401;28;20086;-78
2024/01/28 02:20:01;;;;;;;14.48;10.82;;;;;;;6.04;69.94;101669.28;5068104;28;20036;-74
2024/01/28 02:22:26;;;;;;;16.65;10.13;;;;;;;5.84;69.89;101639.94;5073387;28;20021;-75
2024/01/28 02:24:52;;;;;;;15.90;11.02;;;;;;;6.00;70.10;101673.00;5072227;28;20028;-72
2024/01/28 02:27:17;;;;;;;18.95;10.27;;;;;;;6.08;69.99;101673.53;5068927;28;20103;-77
2024/01/28 02:29:43;;;;;;;12.25;9.35;;;;;;;6.04;69.99;101674.63;5069184;28;20032;-74
2024/01/28 02:32:12;;;;;;;16.85;10.55;;;;;;;6.03;70.31;101678.22;5068756;28;20107;-74
2024/01/28 02:34:38;;;;;;;14.27;10.35;;;;;;;6.01;70.45;101685.44;5068623;28;20115;-73
2024/01/28 02:37:04;;;;;;;14.90;9.73;;;;;;;5.98;70.51;101667.75;5068621;28;20127;-76
2024/01/28 02:39:29;;;;;;;17.92;11.23;;;;;;;6.07;70.41;101685.16;5069286;28;20036;-73
2024/01/28 02:41:55;;;;;;;14.63;10.00;;;;;;;5.99;70.12;101660.63;5069540;28;20488;-75
2024/01/28 02:44:20;;;;;;;16.10;10.48;;;;;;;6.08;69.92;101676.22;5068905;28;20060;-73
2024/01/28 02:46:46;;;;;;;13.43;9.90;;;;;;;6.07;70.24;101690.50;5068717;28;20082;-75
2024/01/28 02:49:11;;;;;;;12.75;9.65;;;;;;;6.05;70.15;101691.50;5049481;28;20067;-75
2024/01/28 02:51:37;;;;;;;11.95;9.02;;;;;;;6.12;69.98;101693.81;5067310;28;20107;-75
2024/01/28 02:54:03;;;;;;;12.07;8.55;;;;;;;6.06;69.99;101699.44;5068416;28;20059;-73
2024/01/28 02:56:28;;;;;;;9.18;8.05;;;;;;;5.98;69.85;101685.56;5067278;28;20032;-76
2024/01/28 02:58:54;;;;;;;11.98;8.82;;;;;;;6.07;70.21;101714.53;5068416;28;20127;-73
2024/01/28 03:01:20;;;;;;;12.65;9.38;;;;;;;5.99;70.06;101695.34;5068864;28;20025;-74
2024/01/28 03:03:46;;;;;;;12.95;8.50;;;;;;;6.07;69.96;101711.84;5069078;28;20028;-74
2024/01/28 03:06:11;;;;;;;10.65;8.63;;;;;;;6.09;70.27;101715.31;5066717;28;20040;-73
2024/01/28 03:08:37;;;;;;;11.13;8.50;;;;;;;5.97;69.91;101689.16;5068895;28;20085;-73
2024/01/28 03:11:02;;;;;;;10.90;7.72;;;;;;;6.05;69.65;101708.41;5074761;28;20021;-73
2024/01/28 03:13:28;;;;;;;10.77;7.65;;;;;;;6.05;69.56;101713.75;5074636;28;20036;-73
2024/01/28 03:15:55;;;;;;;13.70;8.13;;;;;;;6.09;69.91;101714.44;5068017;28;20105;-76
2024/01/28 03:18:21;;;;;;;8.13;6.88;;;;;;;6.12;69.58;101731.19;5065698;28;20033;-74
2024/01/28 03:20:47;;;;;;;9.27;7.15;;;;;;;6.09;69.22;101735.81;5067966;28;20401;-73
2024/01/28 03:23:14;;;;;;;8.52;7.22;;;;;;;5.96;69.58;101717.66;5067823;28;20039;-73
2024/01/28 03:25:40;;;;;;;10.80;7.05;;;;;;;6.05;68.93;101739.56;5068017;28;20021;-74
2024/01/28 03:28:06;;;;;;;9.35;7.28;;;;;;;6.02;69.34;101729.91;5068168;28;20032;-75
2024/01/28 03:30:31;;;;;;;9.65;6.15;;;;;;;5.90;68.55;101699.25;5068363;28;20027;-75
2024/01/28 03:32:58;;;;;;;8.82;7.57;;;;;;;6.00;68.10;101726.41;5068015;28;20398;-72
2024/01/28 03:35:24;;;;;;;8.30;6.18;;;;;;;6.07;67.72;101751.03;5067822;28;20101;-74
2024/01/28 03:37:50;;;;;;;7.80;6.90;;;;;;;6.09;67.40;101743.81;5067797;28;20064;-74
2024/01/28 03:40:16;;;;;;;6.95;5.95;;;;;;;6.24;66.43;101773.38;5067738;28;20020;-76
2024/01/28 03:42:42;;;;;;;8.48;6.65;;;;;;;6.17;66.71;101763.94;5067643;28;20060;-73
2024/01/28 03:45:09;;;;;;;6.93;5.50;;;;;;;6.25;66.28;101775.13;5067939;28;20156;-75
2024/01/28 03:47:35;;;;;;;8.43;5.60;;;;;;;6.33;65.70;101780.13;5067827;28;20072;-73
2024/01/28 03:50:02;;;;;;;6.70;5.93;;;;;;;6.21;65.66;101762.84;5067849;28;20704;-73
2024/01/28 03:52:28;;;;;;;6.35;5.68;;;;;;;6.30;65.67;101778.44;5068726;28;20031;-74
2024/01/28 03:54:53;;;;;;;7.03;5.35;;;;;;;6.26;65.94;101776.88;5068172;28;20024;-76
2024/01/28 03:57:19;;;;;;;7.15;5.47;;;;;;;6.29;65.94;101779.41;5067927;28;20257;-75
2024/01/28 03:59:44;;;;;;;7.45;5.82;;;;;;;6.26;66.39;101792.03;5074149;28;20029;-75
2024/01/28 04:02:10;;;;;;;6.47;5.70;;;;;;;6.31;66.34;101803.38;5071328;28;20032;-72
2024/01/28 04:04:35;;;;;;;5.40;4.90;;;;;;;6.16;66.39;101791.56;5067507;28;20036;-74
2024/01/28 04:07:01;;;;;;;10.57;5.80;;;;;;;6.16;66.33;101775.53;5067444;28;20028;-74
2024/01/28 04:09:27;;;;;;;7.10;6.10;;;;;;;6.17;67.09;101798.66;5067835;28;20032;-75
2024/01/28 04:11:52;;;;;;;7.72;5.40;;;;;;;6.21;66.85;101799.41;5067553;28;20108;-75
2024/01/28 04:14:18;;;;;;;6.18;5.55;;;;;;;6.35;67.08;101819.22;5067643;28;20878;-74
2024/01/28 04:16:43;;;;;;;5.50;5.00;;;;;;;6.41;66.57;101834.97;5067437;28;20060;-73
2024/01/28 04:19:09;;;;;;;6.38;5.78;;;;;;;6.27;66.24;101813.31;5067460;28;20035;-74
2024/01/28 04:21:35;;;;;;;6.22;5.70;;;;;;;6.34;66.37;101828.16;5067783;28;20097;-73
2024/01/28 04:24:01;;;;;;;5.90;5.30;;;;;;;6.22;66.11;101818.00;5067332;28;20043;-73
2024/01/28 04:26:27;;;;;;;5.85;5.10;;;;;;;6.21;66.01;101800.22;5067303;28;20024;-72
2024/01/28 04:28:52;;;;;;;6.63;6.03;;;;;;;6.40;65.85;101835.00;5067553;28;20046;-76
2024/01/28 04:31:19;;;;;;;6.40;5.38;;;;;;;6.37;65.53;101838.69;5067811;28;20025;-74
2024/01/28 04:33:45;;;;;;;6.40;5.43;;;;;;;6.19;65.22;101814.59;5069484;28;20029;-73
2024/01/28 04:36:11;;;;;;;6.47;5.75;;;;;;;6.26;65.25;101834.78;5071739;28;20055;-73
2024/01/28 04:38:36;;;;;;;7.18;5.40;;;;;;;6.28;65.48;101844.44;5068956;28;20475;-73
2024/01/28 04:41:02;;;;;;;6.38;5.75;;;;;;;6.25;65.86;101849.94;5071881;28;20032;-74
2024/01/28 04:43:28;;;;;;;7.38;5.63;;;;;;;6.23;66.21;101857.16;5072000;28;20037;-75
2024/01/28 04:45:53;;;;;;;7.25;6.30;;;;;;;6.27;65.97;101858.72;5052371;28;20120;-76
2024/01/28 04:48:20;;;;;;;6.88;5.90;;;;;;;6.24;65.93;101863.38;5073672;28;20027;-75
2024/01/28 04:50:46;;;;;;;6.45;5.85;;;;;;;6.20;66.01;101862.63;5074710;28;20079;-74
2024/01/28 04:53:12;;;;;;;8.00;6.43;;;;;;;6.22;66.14;101860.75;5071242;28;20049;-73
2024/01/28 04:55:37;;;;;;;6.75;5.80;;;;;;;6.19;66.56;101860.00;5071269;28;20031;-74
2024/01/28 04:58:03;;;;;;;7.95;5.93;;;;;;;6.24;66.24;101866.03;5071424;28;20024;-73
2024/01/28 05:00:28;;;;;;;6.80;5.68;;;;;;;6.11;66.46;101840.78;5070791;28;20487;-74
2024/01/28 05:02:56;;;;;;;9.50;6.18;;;;;;;5.93;67.01;101831.78;5070676;28;20547;-76
2024/01/28 05:05:24;;;;;;;8.25;6.97;;;;;;;6.01;66.89;101851.00;5070985;28;20055;-75
2024/01/28 05:07:50;;;;;;;8.45;6.50;;;;;;;6.10;66.93;101857.75;5070977;28;20420;-73
2024/01/28 05:10:16;;;;;;;9.18;6.80;;;;;;;6.08;66.82;101865.84;5070799;28;20028;-73
2024/01/28 05:12:42;;;;;;;8.85;6.18;;;;;;;6.05;66.88;101870.44;5070509;28;20035;-74
2024/01/28 05:15:09;;;;;;;11.95;6.50;;;;;;;6.04;66.84;101861.56;5070603;28;20025;-75
2024/01/28 05:17:37;;;;;;;10.35;6.65;;;;;;;6.05;66.60;101867.75;5070650;28;20241;-74
2024/01/28 05:20:03;;;;;;;10.68;6.32;;;;;;;5.81;66.64;101832.28;5070764;28;20055;-73
2024/01/28 05:22:29;;;;;;;8.30;6.78;;;;;;;5.76;67.09;101826.25;5070809;28;20028;-74
2024/01/28 05:24:55;;;;;;;7.47;6.13;;;;;;;5.92;67.17;101856.72;5070536;28;20417;-75
2024/01/28 05:27:20;;;;;;;8.25;6.75;;;;;;;6.02;66.96;101879.44;5070937;28;20462;-75
2024/01/28 05:29:46;;;;;;;8.88;6.93;;;;;;;6.07;66.90;101888.13;5070868;28;20051;-73
2024/01/28 05:32:12;;;;;;;9.50;6.72;;;;;;;6.01;67.42;101886.59;5071723;28;20028;-76
2024/01/28 05:34:38;;;;;;;6.65;6.05;;;;;;;6.07;67.86;101876.56;5070575;28;20129;-73
2024/01/28 05:37:04;;;;;;;10.38;6.93;;;;;;;6.07;67.57;101877.44;5074081;28;20028;-75
2024/01/28 05:39:29;;;;;;;13.10;7.15;;;;;;;5.98;67.76;101857.34;5076326;28;20509;-74
2024/01/28 05:41:54;;;;;;;9.45;7.65;;;;;;;6.02;67.25;101874.09;5070502;28;20071;-74
2024/01/28 05:44:20;;;;;;;9.32;7.30;;;;;;;6.10;67.90;101888.00;5070372;28;20020;-72
2024/01/28 05:46:46;;;;;;;7.80;7.00;;;;;;;6.15;67.92;101885.09;5068869;28;20032;-75
2024/01/28 05:49:12;;;;;;;9.65;6.93;;;;;;;6.24;67.31;101896.28;5070072;28;20400;-74
2024/01/28 05:51:39;;;;;;;9.80;7.57;;;;;;;6.27;66.82;101906.81;5068482;28;20052;-74
2024/01/28 05:54:07;;;;;;;10.50;7.25;;;;;;;6.27;67.00;101905.97;5069785;28;20551;-75
2024/01/28 05:56:33;;;;;;;13.45;7.78;;;;;;;6.18;66.55;101915.22;5069796;28;20117;-74
2024/01/28 05:58:58;;;;;;;10.50;7.47;;;;;;;6.22;66.73;101918.66;5069654;28;20118;-75
2024/01/28 06:01:24;;;;;;;11.50;8.60;;;;;;;6.13;66.97;101914.56;5064369;28;20032;-74
2024/01/28 06:03:50;;;;;;;9.75;7.68;;;;;;;6.04;66.72;101906.94;5049525;28;20036;-76
2024/01/28 06:06:15;;;;;;;12.40;7.93;;;;;;;6.15;66.54;101919.84;5049694;28;20025;-74
2024/01/28 06:08:41;;;;;;;9.95;7.35;;;;;;;6.09;66.96;101923.63;5048474;28;20021;-74
2024/01/28 06:11:07;;;;;;;9.52;6.78;;;;;;;6.10;66.57;101922.72;5049412;28;20029;-76
2024/01/28 06:13:33;;;;;;;12.45;8.25;;;;;;;6.15;66.72;101925.16;5049531;28;20102;-76
2024/01/28 06:15:59;;;;;;;9.50;7.82;;;;;;;6.18;66.60;101928.59;5049555;28;20087;-76
2024/01/28 06:18:25;;;;;;;11.70;8.10;;;;;;;6.17;66.86;101942.91;5050035;28;20112;-76
2024/01/28 06:20:51;;;;;;;9.45;7.60;;;;;;;6.24;67.09;101938.16;5049328;28;20564;-76
2024/01/28 06:23:16;;;;;;;10.50;6.68;;;;;;;6.19;66.53;101927.66;5050519;28;20071;-75
2024/01/28 06:25:42;;;;;;;10.10;7.28;;;;;;;6.12;66.59;101931.53;5057302;28;20025;-76
2024/01/28 06:28:07;;;;;;;9.57;7.50;;;;;;;5.72;67.84;101870.03;5056326;28;20028;-74
2024/01/28 06:30:33;;;;;;;10.50;7.25;;;;;;;6.11;68.34;101953.84;5049968;28;20039;-74
2024/01/28 06:32:59;;;;;;;10.90;8.20;;;;;;;5.76;69.04;101898.31;5048844;28;20025;-74
2024/01/28 06:35:25;;;;;;;10.02;7.78;;;;;;;6.05;69.37;101951.44;5048307;28;20045;-75
2024/01/28 06:37:50;;;;;;;8.85;7.18;;;;;;;5.94;69.75;101945.66;5049302;28;20071;-73
2024/01/28 06:40:16;;;;;;;11.07;8.77;;;;;;;5.95;69.85;101952.72;5049046;28;20025;-78
2024/01/28 06:42:41;;;;;;;10.15;8.73;;;;;;;5.95;69.93;101944.72;5046515;28;20120;-75
2024/01/28 06:45:10;;;;;;;12.13;9.23;;;;;;;5.95;70.08;101958.94;5046526;28;20064;-75
2024/01/28 06:47:36;;;;;;;14.02;9.38;;;;;;;5.96;69.97;101959.81;5045986;28;20032;-75
2024/01/28 06:50:02;;;;;;;11.40;8.75;;;;;;;5.82;69.89;101938.97;5046527;28;20044;-76
2024/01/28 06:52:27;;;;;;;13.05;8.88;;;;;;;5.94;69.70;101951.84;5046929;28;20654;-74
2024/01/28 06:54:53;;;;;;;10.48;8.30;;;;;;;5.86;70.08;101939.75;5046342;28;20056;-76
2024/01/28 06:57:19;;;;;;;9.23;7.63;;;;;;;5.85;70.02;101941.56;5046286;28;20083;-76
2024/01/28 06:59:45;;;;;;;12.77;8.20;;;;;;;6.02;69.54;101964.91;5046414;28;20162;-77
2024/01/28 07:02:11;;;;;;;10.68;8.07;;;;;;;6.01;69.84;101955.16;5045860;28;20544;-77
2024/01/28 07:04:37;;;;;;;11.13;8.10;;;;;;;5.98;68.91;101960.63;5042910;28;20048;-77
2024/01/28 07:07:03;;;;;;;11.25;8.70;;;;;;;5.78;69.35;101934.69;5066361;28;20059;-76
2024/01/28 07:09:29;;;;;;;11.02;7.70;;;;;;;6.02;69.41;101980.94;5067525;28;20531;-76
2024/01/28 07:11:55;;;;;;;18.92;9.38;;;;;;;5.95;69.34;101964.28;5068008;28;20040;-75
2024/01/28 07:14:22;;;;;;;11.82;8.65;;;;;;;5.96;69.56;101962.50;5072046;28;20049;-76
2024/01/28 07:16:48;;;;;;;20.95;9.85;;;;;;;5.93;69.91;101966.13;5074052;28;20033;-75
2024/01/28 07:19:13;;;;;;;15.48;10.45;;;;;;;5.85;69.84;101954.00;5067170;28;20134;-77
2024/01/28 07:21:39;;;;;;;11.13;8.50;;;;;;;6.10;70.01;101970.78;5067287;28;20631;-75
2024/01/28 07:24:05;;;;;;;11.20;6.93;;;;;;;6.14;69.80;101975.09;5067701;28;20055;-76
2024/01/28 07:26:30;;;;;;;10.35;8.02;;;;;;;6.24;69.61;101972.91;5067683;28;20029;-74
2024/01/28 07:28:56;;;;;;;11.70;7.88;;;;;;;6.25;69.27;101966.59;5067231;28;20032;-74
2024/01/28 07:31:21;;;;;;;14.43;8.77;;;;;;;6.34;68.71;101977.78;5067214;28;20074;-74
2024/01/28 07:33:47;;;;;;;12.38;8.13;;;;;;;6.38;68.86;101983.88;5067774;28;20562;-78
2024/01/28 07:36:14;;;;;;;11.27;8.75;;;;;;;6.37;68.26;101982.13;5059977;28;20124;-78
2024/01/28 07:38:40;;;;;;;18.02;9.43;;;;;;;6.30;68.48;101970.81;5059790;28;20094;-73
2024/01/28 07:41:06;;;;;;;15.50;9.40;;;;;;;6.08;68.43;101927.25;5067857;28;20032;-74
2024/01/28 07:43:31;;;;;;;10.15;7.38;;;;;;;6.35;68.86;101995.56;5066966;28;20097;-73
2024/01/28 07:45:56;;;;;;;20.13;10.05;;;;;;;6.26;69.01;101974.56;5050964;28;20405;-73
2024/01/28 07:48:22;;;;;;;18.88;10.02;;;;;;;6.25;69.30;102004.88;5067922;28;20109;-75
2024/01/28 07:50:47;;;;;;;19.63;10.07;;;;;;;6.11;69.39;101980.56;5067662;28;20476;-75
2024/01/28 07:53:13;;;;;;;18.50;8.90;;;;;;;6.20;69.78;102009.56;5050685;28;20095;-72
2024/01/28 07:55:39;;;;;;;13.48;8.73;;;;;;;6.28;70.23;101993.19;5068928;28;20103;-75
2024/01/28 07:58:04;;;;;;;11.90;8.05;;;;;;;5.95;71.03;101942.94;5069191;28;20025;-75
2024/01/28 08:00:31;;;;;;;13.40;9.32;;;;;;;6.28;70.79;101993.19;5051682;28;20024;-71
2024/01/28 08:02:57;;;;;;;10.68;8.20;;;;;;;6.31;70.88;101993.94;5071549;28;20054;-73
2024/01/28 08:05:22;;;;;;;12.73;8.48;;;;;;;6.35;70.54;102003.56;5073230;28;20036;-76
2024/01/28 08:07:48;;;;;;;11.32;7.78;;;;;;;6.30;70.80;101992.19;5050866;28;20036;-74
2024/01/28 08:10:13;;;;;;;11.23;7.78;;;;;;;6.38;70.75;102000.78;5067116;28;20109;-76
2024/01/28 08:12:39;;;;;;;15.82;8.63;;;;;;;6.40;70.59;102004.22;5059211;28;20029;-83
2024/01/28 08:15:05;;;;;;;10.80;7.72;;;;;;;6.37;70.99;101988.34;5059744;28;20043;-79
2024/01/28 08:17:30;;;;;;;12.75;8.07;;;;;;;6.40;71.43;101993.53;5068230;28;20048;-75
2024/01/28 08:19:56;;;;;;;12.75;9.07;;;;;;;6.41;71.42;101984.59;5051452;28;20028;-78
2024/01/28 08:22:21;;;;;;;12.80;7.65;;;;;;;6.22;70.60;101977.41;5066992;28;20501;-77
2024/01/28 08:24:47;;;;;;;16.42;8.60;;;;;;;6.39;71.06;102012.34;5066873;28;20583;-75
2024/01/28 08:27:12;;;;;;;12.88;8.82;;;;;;;6.40;71.28;102008.72;5052583;28;20044;-82
2024/01/28 08:29:38;;;;;;;12.13;7.28;;;;;;;6.31;71.41;101996.59;5065585;28;20096;-74
2024/01/28 08:32:04;;;;;;;10.80;7.13;;;;;;;6.35;70.99;102013.38;5067054;28;20056;-73
2024/01/28 08:34:30;;;;;;;14.35;8.85;;;;;;;6.30;71.24;102002.88;5050118;28;20039;-74
2024/01/28 08:36:56;;;;;;;10.13;7.43;;;;;;;6.35;71.79;102008.03;5067229;28;20514;-74
2024/01/28 08:39:21;;;;;;;8.60;7.03;;;;;;;6.19;72.02;101983.75;5066979;28;20568;-73
2024/01/28 08:41:47;;;;;;;8.32;7.35;;;;;;;6.40;72.13;102012.25;5053184;28;20089;-77
2024/01/28 08:44:14;;;;;;;10.18;7.72;;;;;;;6.36;71.84;101993.75;5065839;28;20067;-73
2024/01/28 08:46:42;;;;;;;11.40;8.15;;;;;;;6.58;71.63;102019.50;5067854;28;20028;-75
2024/01/28 08:49:08;;;;;;;10.88;7.25;;;;;;;6.51;70.89;102009.97;5063268;28;20028;-78
2024/01/28 08:51:33;;;;;;;12.38;7.53;;;;;;;6.52;71.14;102018.88;5077992;28;20088;-74
2024/01/28 08:53:59;;;;;;;10.68;7.60;;;;;;;6.34;71.55;101991.13;5073698;28;20485;-77
2024/01/28 08:56:24;;;;;;;14.13;9.27;;;;;;;6.35;71.54;102011.59;5067360;28;20056;-75
2024/01/28 08:58:50;;;;;;;11.48;8.57;;;;;;;6.42;71.90;102020.22;5052449;28;20122;-75
2024/01/28 09:01:15;;;;;;;10.15;6.63;;;;;;;6.48;71.73;102018.13;5067665;28;20021;-79
2024/01/28 09:03:41;;;;;;;11.35;7.78;;;;;;;6.56;71.73;102037.41;5066870;28;20475;-74
2024/01/28 09:06:07;;;;;;;9.98;7.55;;;;;;;6.62;71.84;102030.06;5047637;28;20415;-75
2024/01/28 09:08:33;;;;;;;11.18;8.02;;;;;;;6.52;71.04;102014.41;5066772;28;20557;-76
2024/01/28 09:11:00;;;;;;;8.52;7.72;;;;;;;6.53;71.31;102002.78;5066104;28;20039;-76
2024/01/28 09:13:25;;;;;;;13.45;7.93;;;;;;;6.62;71.45;102020.22;5051625;28;20028;-76
2024/01/28 09:15:51;;;;;;;9.00;8.07;;;;;;;6.69;71.84;102027.06;5066230;28;20040;-75
2024/01/28 09:18:16;;;;;;;11.90;7.70;;;;;;;6.40;71.52;101985.53;5067246;28;20450;-75
2024/01/28 09:20:42;;;;;;;10.50;7.00;;;;;;;6.53;71.68;102016.16;5056985;28;20272;-80
2024/01/28 09:23:08;;;;;;;9.07;7.15;;;;;;;6.28;71.95;102015.44;5067420;28;20112;-77
2024/01/28 09:25:34;;;;;;;7.90;6.60;;;;;;;6.38;72.23;102030.16;5070090;28;20028;-75
2024/01/28 09:28:00;;;;;;;11.50;7.57;;;;;;;6.36;72.17;102034.69;5055987;28;20118;-76
2024/01/28 09:30:25;;;;;;;12.02;8.50;;;;;;;6.36;72.63;102033.84;5071673;28;20029;-76
2024/01/28 09:32:51;;;;;;;10.70;7.85;;;;;;;6.32;72.67;102037.56;5069372;28;20616;-75
2024/01/28 09:35:17;;;;;;;9.27;7.72;;;;;;;6.33;72.55;102023.28;5063401;28;20060;-79
2024/01/28 09:37:42;;;;;;;13.18;8.65;;;;;;;6.39;72.26;102029.22;5065735;28;20025;-74
2024/01/28 09:40:11;;;;;;;8.63;6.97;;;;;;;6.50;72.33;102026.97;5074600;28;20029;-76
2024/01/28 09:42:46;;;;;;;11.52;7.53;;;;;;;6.45;72.04;102018.25;5069420;28;20020;-76
2024/01/28 09:45:13;;;;;;;9.18;7.22;;;;;;;6.34;71.44;102023.19;5049447;28;20515;-78
2024/01/28 09:47:40;;;;;;;14.20;7.90;;;;;;;6.47;71.45;102024.44;5070768;28;20107;-75
2024/01/28 09:50:08;;;;;;;14.32;9.45;;;;;;;6.46;71.91;102036.03;5070828;28;20071;-75
2024/01/28 09:52:33;;;;;;;7.57;6.25;;;;;;;6.36;71.19;102007.13;5037402;28;20586;-77
2024/01/28 09:54:59;;;;;;;7.72;6.95;;;;;;;6.37;71.65;102024.88;5050319;28;20190;-74
2024/01/28 09:57:25;;;;;;;8.65;7.70;;;;;;;6.41;71.62;102032.72;5056262;28;20033;-76
2024/01/28 09:59:50;;;;;;;10.63;7.82;;;;;;;6.33;71.89;102001.91;5054248;28;20044;-72
2024/01/28 10:02:17;;;;;;;11.15;8.10;;;;;;;6.52;72.05;102030.44;5070396;28;20020;-77
2024/01/28 10:04:45;;;;;;;12.85;7.53;;;;;;;6.62;71.72;102022.03;5070566;28;20043;-76
2024/01/28 10:07:11;;;;;;;17.27;8.80;;;;;;;6.74;71.20;102025.06;5056430;28;20138;-78
2024/01/28 10:09:37;;;;;;;11.50;6.95;;;;;;;6.80;70.73;102031.94;5069916;28;20107;-82
2024/01/28 10:12:04;;;;;;;11.60;8.07;;;;;;;6.89;70.98;102031.53;5065519;28;20094;-81
2024/01/28 10:14:29;;;;;;;13.27;8.00;;;;;;;7.04;70.17;102029.06;5059868;28;20590;-74
2024/01/28 10:16:57;;;;;;;9.07;6.22;;;;;;;7.03;69.71;102010.41;5070135;28;20029;-78
2024/01/28 10:19:23;;;;;;;18.60;9.32;;;;;;;7.09;69.20;102028.88;5069269;28;20044;-80
2024/01/28 10:21:49;;;;;;;10.63;6.10;;;;;;;7.13;69.46;102022.41;5055258;28;20128;-77
2024/01/28 10:24:16;;;;;;;12.45;8.10;;;;;;;7.30;68.74;102022.53;5068765;28;20118;-75
2024/01/28 10:26:42;;;;;;;8.48;6.18;;;;;;;7.25;68.03;102013.84;5072102;28;20508;-77
2024/01/28 10:29:09;;;;;;;10.27;6.45;;;;;;;7.16;67.34;102016.06;5036518;28;20071;-75
2024/01/28 10:31:37;;;;;;;15.25;10.38;;;;;;;7.19;67.28;102037.31;5032364;28;20090;-76
2024/01/28 10:34:03;;;;;;;7.93;6.38;;;;;;;7.15;68.15;102041.97;5065573;28;20044;-75
2024/01/28 10:36:39;;;;;;;12.30;7.53;;;;;;;7.10;68.59;102046.63;5050074;28;20053;-79
2024/01/28 10:39:06;;;;;;;8.07;6.40;;;;;;;7.19;67.92;102062.28;5051577;28;20154;-79
2024/01/28 10:41:32;;;;;;;9.13;6.07;;;;;;;7.23;68.00;102045.16;5066269;28;20123;-74
2024/01/28 10:44:05;;;;;;;10.35;7.28;;;;;;;7.29;68.03;102038.66;5051079;28;20901;-78
2024/01/28 10:46:38;;;;;;;6.63;5.95;;;;;;;7.32;67.65;102035.84;5050105;28;20044;-78
2024/01/28 10:49:06;;;;;;;8.32;5.72;;;;;;;7.20;66.79;102028.38;5066705;28;20025;-78
2024/01/28 10:51:39;;;;;;;5.53;4.95;;;;;;;7.14;67.24;102042.91;5055901;28;20033;-79
2024/01/28 10:54:07;;;;;;;6.18;5.57;;;;;;;7.16;67.25;102049.03;5066092;28;20090;-76
2024/01/28 10:56:34;;;;;;;8.27;5.85;;;;;;;6.91;67.44;101989.56;5069263;28;20113;-76
2024/01/28 10:59:00;;;;;;;6.53;5.82;;;;;;;7.17;67.93;102024.03;5064752;28;20440;-80
2024/01/28 11:01:27;;;;;;;7.50;5.70;;;;;;;7.23;67.53;102037.13;5058970;28;20033;-76
2024/01/28 11:03:54;;;;;;;8.45;6.63;;;;;;;7.30;67.14;102029.69;5068856;28;20111;-75
2024/01/28 11:06:20;;;;;;;12.02;8.15;;;;;;;7.30;66.74;102043.06;5055090;28;20503;-75
2024/01/28 11:08:46;;;;;;;9.38;7.25;;;;;;;7.19;66.83;102029.28;5053742;28;20033;-74
2024/01/28 11:11:15;;;;;;;16.45;10.00;;;;;;;7.36;66.55;102051.72;5069999;28;20029;-78
2024/01/28 11:13:42;;;;;;;8.63;6.53;;;;;;;7.41;66.92;102047.00;5074379;28;20024;-76
2024/01/28 11:16:11;;;;;;;12.07;7.65;;;;;;;7.26;65.92;102028.97;5072706;28;20051;-76
2024/01/28 11:18:36;;;;;;;23.60;11.43;;;;;;;7.38;66.61;102043.59;5068684;28;20078;-74
2024/01/28 11:21:18;;;;;;;12.23;7.88;;;;;;;7.36;66.35;102034.78;5068142;28;20040;-79